Time;durP1;ratioP1;P1;durP2;ratioP2;P2;SDS_P1;SDS_P2;PMS_P1;PMS_P2;Temp;Humidity;BMP_temperature;BMP_pressure;BME280_temperature;BME280_humidity;BME280_pressure;Samples;Min_cycle;Max_cycle;Signal;HPM_P1;HPM_P2
2023/08/29 00:01:55;;;;;;;;;1.50;1.50;;;;;-146.67;100.00;57155.34;5063481;28;8821;-77
2023/08/29 00:04:20;;;;;;;;;3.00;2.00;;;;;-146.67;100.00;57155.34;5080447;28;8837;-77
2023/08/29 00:06:45;;;;;;;;;2.50;2.50;;;;;-146.67;100.00;57155.34;5079975;28;8835;-77
2023/08/29 00:09:11;;;;;;;;;2.00;2.00;;;;;-146.67;100.00;57155.34;5079162;28;8868;-77
2023/08/29 00:11:36;;;;;;;;;2.25;2.00;;;;;-146.67;100.00;57155.34;5061319;28;8883;-77
2023/08/29 00:14:02;;;;;;;;;1.75;1.75;;;;;-146.67;100.00;57155.34;5081210;28;8802;-76
2023/08/29 00:16:27;;;;;;;;;2.00;1.00;;;;;-146.67;100.00;57155.34;5098788;28;8835;-77
2023/08/29 00:18:52;;;;;;;;;2.00;2.00;;;;;-146.67;100.00;57155.34;5083955;28;9541;-77
2023/08/29 00:21:18;;;;;;;;;3.75;1.75;;;;;-146.67;100.00;57155.34;5083715;28;8812;-76
2023/08/29 00:23:43;;;;;;;;;2.00;2.00;;;;;-146.67;100.00;57155.34;5066635;28;8859;-77
2023/08/29 00:26:08;;;;;;;;;3.00;3.00;;;;;-146.67;100.00;57155.34;5084525;28;8805;-76
2023/08/29 00:28:34;;;;;;;;;3.00;1.50;;;;;-146.67;100.00;57155.34;5067069;28;10002;-76
2023/08/29 00:30:59;;;;;;;;;2.00;2.00;;;;;-146.67;100.00;57155.34;5085501;28;8816;-76
2023/08/29 00:33:24;;;;;;;;;1.00;1.00;;;;;-146.67;100.00;57155.34;5066899;28;8820;-77
2023/08/29 00:35:50;;;;;;;;;2.50;2.50;;;;;-146.67;100.00;57155.34;5085379;28;8817;-76
2023/08/29 00:38:15;;;;;;;;;2.50;2.00;;;;;-146.67;100.00;57155.34;5085063;28;8911;-77
2023/08/29 00:40:41;;;;;;;;;1.50;0.75;;;;;-146.67;100.00;57155.34;5083868;28;8852;-77
2023/08/29 00:43:06;;;;;;;;;2.00;2.00;;;;;-146.67;100.00;57155.34;5066887;28;8812;-77
2023/08/29 00:45:35;;;;;;;;;0.25;0.00;;;;;-146.67;100.00;57155.34;5084932;28;8816;-77
2023/08/29 00:48:01;;;;;;;;;2.00;1.00;;;;;-146.67;100.00;57155.34;5084829;28;8762;-77
2023/08/29 00:50:27;;;;;;;;;2.00;1.00;;;;;-146.67;100.00;57155.34;5084342;28;10348;-77
2023/08/29 00:52:58;;;;;;;;;1.50;1.00;;;;;-146.67;100.00;57155.34;5084919;28;10634;-77
2023/08/29 00:55:25;;;;;;;;;2.50;1.00;;;;;-146.67;100.00;57155.34;5084570;28;11593;-77
2023/08/29 00:57:55;;;;;;;;;2.75;1.00;;;;;-146.67;100.00;57155.34;5084337;28;10717;-77
2023/08/29 01:00:27;;;;;;;;;1.25;1.25;;;;;-146.67;100.00;57155.34;5084603;28;10504;-77
2023/08/29 01:02:54;;;;;;;;;4.00;3.00;;;;;-146.67;100.00;57155.34;5084490;28;10495;-77
2023/08/29 01:05:22;;;;;;;;;3.25;1.00;;;;;-146.67;100.00;57155.34;5084573;28;10725;-77
2023/08/29 01:07:59;;;;;;;;;3.25;2.00;;;;;-146.67;100.00;57155.34;5066133;28;10615;-76
2023/08/29 01:10:51;;;;;;;;;5.00;3.00;;;;;-146.67;100.00;57155.34;5084795;28;10682;-77
2023/08/29 01:13:47;;;;;;;;;2.75;2.50;;;;;-146.67;100.00;57155.34;5082676;28;10597;-77
2023/08/29 01:16:16;;;;;;;;;4.25;2.00;;;;;-146.67;100.00;57155.34;5084431;28;10722;-76
2023/08/29 01:18:45;;;;;;;;;5.00;2.75;;;;;-146.67;100.00;57155.34;5066232;28;10516;-77
2023/08/29 01:21:42;;;;;;;;;4.50;2.00;;;;;-146.67;100.00;57155.34;5058122;28;10539;-76
2023/08/29 01:24:18;;;;;;;;;1.00;1.00;;;;;-146.67;100.00;57155.34;5081324;28;10336;-77
2023/08/29 01:26:45;;;;;;;;;9.25;1.50;;;;;-146.67;100.00;57155.34;5082804;28;10633;-77
2023/08/29 01:29:10;;;;;;;;;2.00;2.00;;;;;-146.67;100.00;57155.34;5084467;28;10809;-77
2023/08/29 01:31:37;;;;;;;;;3.50;2.00;;;;;-146.67;100.00;57155.34;5083969;28;10561;-76
2023/08/29 01:34:03;;;;;;;;;2.75;2.00;;;;;-146.67;100.00;57155.34;5084622;28;8760;-76
2023/08/29 01:36:39;;;;;;;;;2.00;2.00;;;;;-146.67;100.00;57155.34;5084054;28;10632;-76
2023/08/29 01:39:05;;;;;;;;;1.50;1.50;;;;;-146.67;100.00;57155.34;5066169;28;10963;-76
2023/08/29 01:41:30;;;;;;;;;1.00;1.00;;;;;-146.67;100.00;57155.34;5084225;28;10579;-76
2023/08/29 01:43:56;;;;;;;;;3.00;2.75;;;;;-146.67;100.00;57155.34;5064518;28;8809;-77
2023/08/29 01:46:21;;;;;;;;;2.00;2.00;;;;;-146.67;100.00;57155.34;5064423;28;8898;-77
2023/08/29 01:48:47;;;;;;;;;1.50;1.00;;;;;-146.67;100.00;57155.34;5081967;28;9871;-77
2023/08/29 01:51:12;;;;;;;;;0.00;0.00;;;;;-146.67;100.00;57155.34;5064492;28;8867;-77
2023/08/29 01:53:38;;;;;;;;;2.25;2.25;;;;;-146.67;100.00;57155.34;5073388;28;10477;-77
2023/08/29 01:56:07;;;;;;;;;0.75;0.75;;;;;-146.67;100.00;57155.34;5064816;28;8821;-76
2023/08/29 01:58:34;;;;;;;;;4.00;2.00;;;;;-146.67;100.00;57155.34;5065553;28;10671;-76
2023/08/29 02:01:01;;;;;;;;;2.50;1.50;;;;;-146.67;100.00;57155.34;5065272;28;10671;-76
2023/08/29 02:03:26;;;;;;;;;2.00;2.00;;;;;-146.67;100.00;57155.34;5084034;28;10659;-77
2023/08/29 02:05:52;;;;;;;;;3.50;2.00;;;;;-146.67;100.00;57155.34;5081967;28;10674;-77
2023/08/29 02:08:17;;;;;;;;;3.00;3.00;;;;;-146.67;100.00;57155.34;5081692;28;8816;-76
2023/08/29 02:10:43;;;;;;;;;4.00;4.00;;;;;-146.67;100.00;57155.34;5081826;28;8890;-76
2023/08/29 02:13:09;;;;;;;;;2.00;2.00;;;;;-146.67;100.00;57155.34;5079822;28;8820;-76
2023/08/29 02:15:35;;;;;;;;;7.00;3.00;;;;;-146.67;100.00;57155.34;5063137;28;8875;-76
2023/08/29 02:18:00;;;;;;;;;3.25;3.25;;;;;-146.67;100.00;57155.34;5081322;28;10941;-76
2023/08/29 02:20:25;;;;;;;;;3.75;3.00;;;;;-146.67;100.00;57155.34;5081681;28;8852;-76
2023/08/29 02:22:51;;;;;;;;;4.25;2.25;;;;;-146.67;100.00;57155.34;5081956;28;8813;-76
2023/08/29 02:25:16;;;;;;;;;6.00;6.00;;;;;-146.67;100.00;57155.34;5065509;28;8884;-76
2023/08/29 02:27:42;;;;;;;;;2.50;1.25;;;;;-146.67;100.00;57155.34;5064952;28;9883;-76
2023/08/29 02:30:08;;;;;;;;;3.00;3.00;;;;;-146.67;100.00;57155.34;5083153;28;8811;-76
2023/08/29 02:32:34;;;;;;;;;6.50;3.25;;;;;-146.67;100.00;57155.34;5083315;28;8737;-76
2023/08/29 02:35:00;;;;;;;;;1.25;1.00;;;;;-146.67;100.00;57155.34;5083066;28;10896;-76
2023/08/29 02:37:26;;;;;;;;;5.00;2.25;;;;;-146.67;100.00;57155.34;5083618;28;10956;-77
2023/08/29 02:39:51;;;;;;;;;8.00;3.00;;;;;-146.67;100.00;57155.34;5083190;28;10864;-76
2023/08/29 02:42:17;;;;;;;;;5.25;2.00;;;;;-146.67;100.00;57155.34;5081696;28;8789;-76
2023/08/29 02:44:42;;;;;;;;;4.50;3.50;;;;;-146.67;100.00;57155.34;5083672;28;8800;-76
2023/08/29 02:47:07;;;;;;;;;3.25;3.00;;;;;-146.67;100.00;57155.34;5082740;28;8793;-77
2023/08/29 02:49:33;;;;;;;;;5.25;2.00;;;;;-146.67;100.00;57155.34;5083061;28;8875;-76
2023/08/29 02:51:59;;;;;;;;;8.50;4.00;;;;;-146.67;100.00;57155.34;5083167;28;9560;-76
2023/08/29 02:54:24;;;;;;;;;9.00;2.75;;;;;-146.67;100.00;57155.34;5080925;28;8793;-76
2023/08/29 02:56:51;;;;;;;;;5.50;4.00;;;;;-146.67;100.00;57155.34;5081112;28;9811;-77
2023/08/29 02:59:16;;;;;;;;;4.75;4.75;;;;;-146.67;100.00;57155.34;5083150;28;8718;-76
2023/08/29 03:01:41;;;;;;;;;3.75;3.75;;;;;-146.67;100.00;57155.34;5081448;28;10556;-77
2023/08/29 03:04:07;;;;;;;;;4.25;4.25;;;;;-146.67;100.00;57155.34;5083099;28;8933;-76
2023/08/29 03:06:32;;;;;;;;;5.00;2.75;;;;;-146.67;100.00;57155.34;5082798;28;8785;-76
2023/08/29 03:08:57;;;;;;;;;5.00;4.00;;;;;-146.67;100.00;57155.34;5064919;28;8805;-77
2023/08/29 03:11:23;;;;;;;;;4.50;2.50;;;;;-146.67;100.00;57155.34;5080947;28;8898;-77
2023/08/29 03:13:48;;;;;;;;;4.75;3.50;;;;;-146.67;100.00;57155.34;5083187;28;8805;-77
2023/08/29 03:16:15;;;;;;;;;5.25;3.75;;;;;-146.67;100.00;57155.34;5081291;28;10030;-76
2023/08/29 03:18:40;;;;;;;;;6.25;3.00;;;;;-146.67;100.00;57155.34;5081596;28;8741;-77
2023/08/29 03:21:07;;;;;;;;;2.25;2.25;;;;;-146.67;100.00;57155.34;5081871;28;10500;-76
2023/08/29 03:23:34;;;;;;;;;5.00;4.00;;;;;-146.67;100.00;57155.34;5082915;28;8784;-76
2023/08/29 03:26:07;;;;;;;;;2.50;2.50;;;;;-146.67;100.00;57155.34;5081962;28;10769;-76
2023/08/29 03:28:36;;;;;;;;;3.00;3.00;;;;;-146.67;100.00;57155.34;5064654;28;10779;-76
2023/08/29 03:31:16;;;;;;;;;4.75;4.50;;;;;-146.67;100.00;57155.34;5082315;28;11912;-76
2023/08/29 03:33:43;;;;;;;;;4.25;3.00;;;;;-146.67;100.00;57155.34;5064839;28;10780;-76
2023/08/29 03:36:09;;;;;;;;;3.00;2.25;;;;;-146.67;100.00;57155.34;5082320;28;10857;-76
2023/08/29 03:38:37;;;;;;;;;2.00;2.00;;;;;-146.67;100.00;57155.34;5082761;28;10637;-76
2023/08/29 03:41:06;;;;;;;;;2.50;2.50;;;;;-146.67;100.00;57155.34;5063722;28;10774;-77
2023/08/29 03:43:33;;;;;;;;;4.50;3.00;;;;;-146.67;100.00;57155.34;5082628;28;10448;-76
2023/08/29 03:46:04;;;;;;;;;2.75;2.75;;;;;-146.67;100.00;57155.34;5064261;28;10894;-76
2023/08/29 03:48:30;;;;;;;;;3.75;3.75;;;;;-146.67;100.00;57155.34;5082305;28;10744;-76
2023/08/29 03:50:56;;;;;;;;;3.00;3.00;;;;;-146.67;100.00;57155.34;5081077;28;10785;-76
2023/08/29 03:53:22;;;;;;;;;4.50;4.50;;;;;-146.67;100.00;57155.34;5077280;28;8812;-76
2023/08/29 03:55:48;;;;;;;;;7.50;3.00;;;;;-146.67;100.00;57155.34;5061019;28;9929;-76
2023/08/29 03:58:14;;;;;;;;;3.50;3.50;;;;;-146.67;100.00;57155.34;5063519;28;10993;-76
2023/08/29 04:00:41;;;;;;;;;6.50;6.50;;;;;-146.67;100.00;57155.34;5082688;28;8828;-76
2023/08/29 04:03:06;;;;;;;;;5.75;4.25;;;;;-146.67;100.00;57155.34;5068386;28;11439;-76
2023/08/29 04:05:32;;;;;;;;;4.00;4.00;;;;;-146.67;100.00;57155.34;5076365;28;11043;-76
2023/08/29 04:07:57;;;;;;;;;10.25;6.75;;;;;-146.67;100.00;57155.34;5061590;28;8755;-77
2023/08/29 04:10:23;;;;;;;;;5.00;5.00;;;;;-146.67;100.00;57155.34;5073909;28;11392;-76
2023/08/29 04:12:48;;;;;;;;;5.00;4.00;;;;;-146.67;100.00;57155.34;5100211;28;9655;-76
2023/08/29 04:15:14;;;;;;;;;4.25;4.25;;;;;-146.67;100.00;57155.34;5100708;28;8804;-76
2023/08/29 04:17:39;;;;;;;;;5.25;4.25;;;;;-146.67;100.00;57155.34;5101302;28;9257;-76
2023/08/29 04:20:09;;;;;;;;;7.25;4.50;;;;;-146.67;100.00;57155.34;5082414;28;8872;-76
2023/08/29 04:22:35;;;;;;;;;7.00;7.00;;;;;-146.67;100.00;57155.34;5102089;28;8799;-76
2023/08/29 04:25:04;;;;;;;;;8.75;5.00;;;;;-146.67;100.00;57155.34;5101823;28;11314;-76
2023/08/29 04:27:30;;;;;;;;;6.25;4.00;;;;;-146.67;100.00;57155.34;5100344;28;10917;-76
2023/08/29 04:29:55;;;;;;;;;6.75;5.25;;;;;-146.67;100.00;57155.34;5083944;28;11023;-76
2023/08/29 04:32:21;;;;;;;;;3.00;3.00;;;;;-146.67;100.00;57155.34;5100736;28;8804;-76
2023/08/29 04:34:46;;;;;;;;;7.50;7.50;;;;;-146.67;100.00;57155.34;5083875;28;9812;-76
2023/08/29 04:37:11;;;;;;;;;9.25;4.00;;;;;-146.67;100.00;57155.34;5102069;28;8878;-76
2023/08/29 04:39:37;;;;;;;;;4.00;4.00;;;;;-146.67;100.00;57155.34;5099933;28;8777;-76
2023/08/29 04:42:03;;;;;;;;;5.75;5.75;;;;;-146.67;100.00;57155.34;5101930;28;8806;-76
2023/08/29 04:44:29;;;;;;;;;5.50;5.00;;;;;-146.67;100.00;57155.34;5101694;28;9627;-76
2023/08/29 04:46:54;;;;;;;;;4.25;4.00;;;;;-146.67;100.00;57155.34;5083747;28;8776;-76
2023/08/29 04:49:20;;;;;;;;;12.75;8.75;;;;;-146.67;100.00;57155.34;5101287;28;11078;-76
2023/08/29 04:51:45;;;;;;;;;10.00;5.75;;;;;-146.67;100.00;57155.34;5101833;28;8803;-76
2023/08/29 04:54:11;;;;;;;;;3.75;3.75;;;;;-146.67;100.00;57155.34;5086434;28;8808;-76
2023/08/29 04:56:37;;;;;;;;;6.50;5.00;;;;;-146.67;100.00;57155.34;5042878;28;8808;-76
2023/08/29 04:59:03;;;;;;;;;4.00;4.00;;;;;-146.67;100.00;57155.34;5043468;28;8810;-76
2023/08/29 05:01:29;;;;;;;;;9.50;7.00;;;;;-146.67;100.00;57155.34;5061425;28;8775;-76
2023/08/29 05:03:59;;;;;;;;;8.75;6.50;;;;;-146.67;100.00;57155.34;5064577;28;11253;-76
2023/08/29 05:06:25;;;;;;;;;4.00;3.00;;;;;-146.67;100.00;57155.34;5064484;28;8743;-76
2023/08/29 05:08:50;;;;;;;;;8.00;5.00;;;;;-146.67;100.00;57155.34;5046423;28;11321;-76
2023/08/29 05:11:16;;;;;;;;;7.25;6.75;;;;;-146.67;100.00;57155.34;5064336;28;11142;-76
2023/08/29 05:13:41;;;;;;;;;8.25;5.50;;;;;-146.67;100.00;57155.34;5079447;28;9881;-78
2023/08/29 05:16:06;;;;;;;;;8.75;5.00;;;;;-146.67;100.00;57155.34;5046375;28;8803;-77
2023/08/29 05:18:32;;;;;;;;;8.00;6.00;;;;;-146.67;100.00;57155.34;5046057;28;8787;-76
2023/08/29 05:20:57;;;;;;;;;7.00;5.00;;;;;-146.67;100.00;57155.34;5063802;28;9429;-77
2023/08/29 05:23:23;;;;;;;;;8.00;6.75;;;;;-146.67;100.00;57155.34;5064078;28;8814;-77
2023/08/29 05:25:49;;;;;;;;;8.25;6.75;;;;;-146.67;100.00;57155.34;5064065;28;8833;-77
2023/08/29 05:28:14;;;;;;;;;11.25;8.25;;;;;-146.67;100.00;57155.34;5063448;28;8704;-77
2023/08/29 05:30:40;;;;;;;;;7.50;7.50;;;;;-146.67;100.00;57155.34;5063836;28;10913;-78
2023/08/29 05:33:05;;;;;;;;;7.00;6.50;;;;;-146.67;100.00;57155.34;5063900;28;9499;-78
2023/08/29 05:35:31;;;;;;;;;8.50;7.00;;;;;-146.67;100.00;57155.34;5063973;28;8796;-78
2023/08/29 05:37:56;;;;;;;;;9.50;7.25;;;;;-146.67;100.00;57155.34;5063308;28;9332;-78
2023/08/29 05:40:21;;;;;;;;;11.25;8.25;;;;;-146.67;100.00;57155.34;5063856;28;8811;-78
2023/08/29 05:42:47;;;;;;;;;9.00;8.00;;;;;-146.67;100.00;57155.34;5063359;28;8850;-77
2023/08/29 05:45:12;;;;;;;;;11.50;8.25;;;;;-146.67;100.00;57155.34;5037209;28;8804;-74
2023/08/29 05:47:37;;;;;;;;;9.75;7.00;;;;;-146.67;100.00;57155.34;5061658;28;8804;-74
2023/08/29 05:50:04;;;;;;;;;9.50;7.75;;;;;-146.67;100.00;57155.34;5062440;28;9098;-74
2023/08/29 05:52:29;;;;;;;;;8.25;6.50;;;;;-146.67;100.00;57155.34;5044723;28;10110;-74
2023/08/29 05:54:55;;;;;;;;;8.50;8.50;;;;;-146.67;100.00;57155.34;5070095;28;11253;-75
2023/08/29 05:57:21;;;;;;;;;9.75;9.75;;;;;-146.67;100.00;57155.34;5083258;28;8744;-74
2023/08/29 05:59:46;;;;;;;;;7.75;6.00;;;;;-146.67;100.00;57155.34;5069836;28;11198;-75
2023/08/29 06:02:12;;;;;;;;;7.25;6.50;;;;;-146.67;100.00;57155.34;5083369;28;8802;-76
2023/08/29 06:04:37;;;;;;;;;11.75;8.00;;;;;-146.67;100.00;57155.34;5079746;28;8804;-74
2023/08/29 06:07:03;;;;;;;;;12.75;7.00;;;;;-146.67;100.00;57155.34;5082109;28;8799;-74
2023/08/29 06:09:28;;;;;;;;;7.50;7.50;;;;;-146.67;100.00;57155.34;5065116;28;8810;-74
2023/08/29 06:11:53;;;;;;;;;7.00;7.00;;;;;-146.67;100.00;57155.34;5082423;28;8782;-74
2023/08/29 06:14:20;;;;;;;;;9.25;7.25;;;;;-146.67;100.00;57155.34;5082607;28;8845;-74
2023/08/29 06:16:46;;;;;;;;;8.00;7.75;;;;;-146.67;100.00;57155.34;5098246;28;8743;-74
2023/08/29 06:19:11;;;;;;;;;8.00;7.25;;;;;-146.67;100.00;57155.34;5082911;28;11387;-74
2023/08/29 06:21:38;;;;;;;;;7.75;7.50;;;;;-146.67;100.00;57155.34;5081977;28;8887;-74
2023/08/29 06:24:05;;;;;;;;;13.75;8.75;;;;;-146.67;100.00;57155.34;5082866;28;8789;-74
2023/08/29 06:26:30;;;;;;;;;10.50;9.50;;;;;-146.67;100.00;57155.34;5082063;28;11077;-74
2023/08/29 06:28:55;;;;;;;;;14.50;11.25;;;;;-146.67;100.00;57155.34;5083388;28;11111;-74
2023/08/29 06:31:21;;;;;;;;;14.00;11.25;;;;;-146.67;100.00;57155.34;5103130;28;8918;-73
2023/08/29 06:33:46;;;;;;;;;6.50;6.50;;;;;-146.67;100.00;57155.34;5097743;28;8864;-75
2023/08/29 06:36:11;;;;;;;;;9.50;8.50;;;;;-146.67;100.00;57155.34;5063903;28;8802;-74
2023/08/29 06:38:37;;;;;;;;;5.00;4.00;;;;;-146.67;100.00;57155.34;5081161;28;8807;-74
2023/08/29 06:41:04;;;;;;;;;15.50;9.75;;;;;-146.67;100.00;57155.34;5081964;28;8823;-74
2023/08/29 06:43:30;;;;;;;;;16.25;9.00;;;;;-146.67;100.00;57155.34;5082898;28;8723;-74
2023/08/29 06:45:55;;;;;;;;;11.25;10.00;;;;;-146.67;100.00;57155.34;5082674;28;11253;-74
2023/08/29 06:48:21;;;;;;;;;12.00;11.50;;;;;-146.67;100.00;57155.34;5080839;28;8791;-74
2023/08/29 06:50:46;;;;;;;;;14.00;12.25;;;;;-146.67;100.00;57155.34;5080744;28;9839;-74
2023/08/29 06:53:12;;;;;;;;;12.75;9.50;;;;;-146.67;100.00;57155.34;5082438;28;8825;-74
2023/08/29 06:55:37;;;;;;;;;12.50;9.50;;;;;-146.67;100.00;57155.34;5070950;28;8854;-75
2023/08/29 06:58:05;;;;;;;;;11.75;10.50;;;;;-146.67;100.00;57155.34;5064148;28;9566;-75
2023/08/29 07:00:34;;;;;;;;;11.25;11.25;;;;;-146.67;100.00;57155.34;5063799;28;10163;-76
2023/08/29 07:03:01;;;;;;;;;13.50;9.75;;;;;-146.67;100.00;57155.34;5081708;28;11039;-76
2023/08/29 07:05:27;;;;;;;;;5.75;5.75;;;;;-146.67;100.00;57155.34;5083101;28;10849;-76
2023/08/29 07:07:53;;;;;;;;;11.25;11.25;;;;;-146.67;100.00;57155.34;5081684;28;10801;-75
2023/08/29 07:10:18;;;;;;;;;11.00;9.25;;;;;-146.67;100.00;57155.34;5069500;28;9953;-76
2023/08/29 07:12:45;;;;;;;;;9.00;9.00;;;;;-146.67;100.00;57155.34;5102272;28;8789;-76
2023/08/29 07:15:12;;;;;;;;;8.75;7.00;;;;;-146.67;100.00;57155.34;5074743;28;9806;-75
2023/08/29 07:17:37;;;;;;;;;9.25;7.75;;;;;-146.67;100.00;57155.34;5081902;28;10762;-76
2023/08/29 07:20:09;;;;;;;;;11.75;11.25;;;;;-146.67;100.00;57155.34;5076588;28;10595;-75
2023/08/29 07:22:36;;;;;;;;;9.75;8.00;;;;;-146.67;100.00;57155.34;5061453;28;8841;-75
2023/08/29 07:25:05;;;;;;;;;10.50;9.00;;;;;-146.67;100.00;57155.34;5076199;28;10425;-76
2023/08/29 07:27:33;;;;;;;;;15.00;8.50;;;;;-146.67;100.00;57155.34;5080930;28;10488;-76
2023/08/29 07:29:59;;;;;;;;;11.75;10.25;;;;;-146.67;100.00;57155.34;5082043;28;10656;-76
2023/08/29 07:32:28;;;;;;;;;10.00;9.50;;;;;-146.67;100.00;57155.34;5080877;28;10433;-76
2023/08/29 07:34:55;;;;;;;;;9.00;9.00;;;;;-146.67;100.00;57155.34;5102560;28;8777;-75
2023/08/29 07:38:09;;;;;;;;;11.75;8.00;;;;;-146.67;100.00;57155.34;5089870;28;10633;-75
2023/08/29 07:40:35;;;;;;;;;12.00;9.75;;;;;-146.67;100.00;57155.34;5082022;28;11804;-75
2023/08/29 07:43:13;;;;;;;;;13.00;9.50;;;;;-146.67;100.00;57155.34;5080647;28;10747;-75
2023/08/29 07:45:40;;;;;;;;;9.00;9.00;;;;;-146.67;100.00;57155.34;5081156;28;8795;-75
2023/08/29 07:48:06;;;;;;;;;13.50;9.25;;;;;-146.67;100.00;57155.34;5089853;28;10615;-75
2023/08/29 07:50:32;;;;;;;;;15.00;9.00;;;;;-146.67;100.00;57155.34;5101143;28;10666;-75
2023/08/29 07:52:58;;;;;;;;;12.75;8.50;;;;;-146.67;100.00;57155.34;5087691;28;8789;-75
2023/08/29 07:55:24;;;;;;;;;8.50;6.75;;;;;-146.67;100.00;57155.34;5081336;28;8843;-75
2023/08/29 07:57:49;;;;;;;;;10.00;6.00;;;;;-146.67;100.00;57155.34;5081135;28;8950;-75
2023/08/29 08:00:16;;;;;;;;;8.50;7.50;;;;;-146.67;100.00;57155.34;5081140;28;8782;-78
2023/08/29 08:02:45;;;;;;;;;7.75;7.00;;;;;-146.67;100.00;57155.34;5053611;28;8834;-77
2023/08/29 08:05:15;;;;;;;;;11.50;8.75;;;;;-146.67;100.00;57155.34;5081027;28;10418;-77
2023/08/29 08:07:42;;;;;;;;;6.75;6.75;;;;;-146.67;100.00;57155.34;5061833;28;10569;-77
2023/08/29 08:10:09;;;;;;;;;14.25;9.00;;;;;-146.67;100.00;57155.34;5081219;28;10594;-76
2023/08/29 08:12:37;;;;;;;;;8.75;7.50;;;;;-146.67;100.00;57155.34;5078404;28;10581;-77
2023/08/29 08:15:08;;;;;;;;;7.25;7.00;;;;;-146.67;100.00;57155.34;5081130;28;10460;-76
2023/08/29 08:17:34;;;;;;;;;6.50;6.25;;;;;-146.67;100.00;57155.34;5080418;28;10558;-77
2023/08/29 08:20:00;;;;;;;;;10.00;8.00;;;;;-146.67;100.00;57155.34;5062819;28;10604;-76
2023/08/29 08:22:26;;;;;;;;;8.75;8.00;;;;;-146.67;100.00;57155.34;5063037;28;10577;-77
2023/08/29 08:24:51;;;;;;;;;7.25;7.25;;;;;-146.67;100.00;57155.34;5062736;28;10433;-77
2023/08/29 08:27:17;;;;;;;;;7.00;6.00;;;;;-146.67;100.00;57155.34;5081020;28;8797;-77
2023/08/29 08:29:43;;;;;;;;;9.75;8.00;;;;;-146.67;100.00;57155.34;5081162;28;8853;-77
2023/08/29 08:32:08;;;;;;;;;7.00;7.00;;;;;-146.67;100.00;57155.34;5081021;28;9567;-77
2023/08/29 08:34:34;;;;;;;;;7.75;5.50;;;;;-146.67;100.00;57155.34;5088621;28;8911;-78
2023/08/29 08:36:59;;;;;;;;;10.00;8.00;;;;;-146.67;100.00;57155.34;5101853;28;8867;-77
2023/08/29 08:39:25;;;;;;;;;10.25;8.25;;;;;-146.67;100.00;57155.34;5102977;28;8793;-77
2023/08/29 08:41:51;;;;;;;;;7.00;5.50;;;;;-146.67;100.00;57155.34;5065924;28;8949;-77
2023/08/29 08:44:20;;;;;;;;;3.25;3.25;;;;;-146.67;100.00;57155.34;5084200;28;9797;-77
2023/08/29 08:46:46;;;;;;;;;9.50;9.50;;;;;-146.67;100.00;57155.34;5083353;28;10129;-77
2023/08/29 08:49:12;;;;;;;;;8.50;7.25;;;;;-146.67;100.00;57155.34;5083975;28;10800;-77
2023/08/29 08:51:40;;;;;;;;;9.00;6.50;;;;;-146.67;100.00;57155.34;5084710;28;10346;-77
2023/08/29 08:54:07;;;;;;;;;5.00;4.00;;;;;-146.67;100.00;57155.34;5083594;28;8750;-77
2023/08/29 08:56:33;;;;;;;;;6.00;5.00;;;;;-146.67;100.00;57155.34;5083155;28;10221;-74
2023/08/29 08:58:59;;;;;;;;;5.25;2.75;;;;;-146.67;100.00;57155.34;5064709;28;10491;-75
2023/08/29 09:01:24;;;;;;;;;2.00;2.00;;;;;-146.67;100.00;57155.34;5093947;28;8789;-75
2023/08/29 09:03:50;;;;;;;;;2.75;2.75;;;;;-146.67;100.00;57155.34;5094082;28;8790;-76
2023/08/29 09:06:16;;;;;;;;;4.25;2.50;;;;;-146.67;100.00;57155.34;5083954;28;8799;-76
2023/08/29 09:08:49;;;;;;;;;4.50;4.00;;;;;-146.67;100.00;57155.34;5066042;28;9924;-79
2023/08/29 09:11:18;;;;;;;;;2.00;2.00;;;;;-146.67;100.00;57155.34;5083403;28;8750;-76
2023/08/29 09:13:48;;;;;;;;;3.25;2.00;;;;;-146.67;100.00;57155.34;5064706;28;9866;-76
2023/08/29 09:16:14;;;;;;;;;3.50;1.25;;;;;-146.67;100.00;57155.34;5098223;28;9900;-76
2023/08/29 09:18:43;;;;;;;;;2.00;2.00;;;;;-146.67;100.00;57155.34;5082541;28;10471;-77
2023/08/29 09:21:21;;;;;;;;;2.00;2.00;;;;;-146.67;100.00;57155.34;5064041;28;8759;-76
2023/08/29 09:23:47;;;;;;;;;3.00;3.00;;;;;-146.67;100.00;57155.34;5064141;28;9568;-75
2023/08/29 09:26:14;;;;;;;;;3.00;3.00;;;;;-146.67;100.00;57155.34;5079796;28;9813;-76
2023/08/29 09:28:40;;;;;;;;;3.00;1.00;;;;;-146.67;100.00;57155.34;5082551;28;9965;-77
2023/08/29 09:31:09;;;;;;;;;0.50;0.50;;;;;-146.67;100.00;57155.34;5059311;28;9848;-78
2023/08/29 09:33:39;;;;;;;;;2.00;2.00;;;;;-146.67;100.00;57155.34;5080699;28;9691;-79
2023/08/29 09:36:06;;;;;;;;;2.00;2.00;;;;;-146.67;100.00;57155.34;5064210;28;9769;-78
2023/08/29 09:38:40;;;;;;;;;3.00;2.00;;;;;-146.67;100.00;57155.34;5064502;28;10223;-79
2023/08/29 09:41:15;;;;;;;;;3.00;2.00;;;;;-146.67;100.00;57155.34;5063925;28;9903;-78
2023/08/29 09:43:51;;;;;;;;;2.50;1.75;;;;;-146.67;100.00;57155.34;5081579;28;9743;-78
2023/08/29 09:46:29;;;;;;;;;6.25;3.00;;;;;-146.67;100.00;57155.34;5065058;28;9792;-77
2023/08/29 09:48:56;;;;;;;;;3.00;3.00;;;;;-146.67;100.00;57155.34;5065504;28;10278;-77
2023/08/29 09:51:28;;;;;;;;;3.25;3.25;;;;;-146.67;100.00;57155.34;5082425;28;9724;-78
2023/08/29 09:53:57;;;;;;;;;3.75;2.75;;;;;-146.67;100.00;57155.34;5063992;28;9963;-77
2023/08/29 09:56:26;;;;;;;;;3.00;3.00;;;;;-146.67;100.00;57155.34;5082121;28;9919;-78
2023/08/29 09:58:56;;;;;;;;;3.00;2.00;;;;;-146.67;100.00;57155.34;5082327;28;10119;-78
2023/08/29 10:01:25;;;;;;;;;1.75;1.50;;;;;-146.67;100.00;57155.34;5081676;28;9597;-80
2023/08/29 10:03:51;;;;;;;;;3.50;3.00;;;;;-146.67;100.00;57155.34;5080201;28;9846;-80
2023/08/29 10:06:21;;;;;;;;;2.00;1.00;;;;;-146.67;100.00;57155.34;5064437;28;9868;-78
2023/08/29 10:08:57;;;;;;;;;2.00;2.00;;;;;-146.67;100.00;57155.34;5081937;28;9901;-77
2023/08/29 10:11:23;;;;;;;;;2.00;2.00;;;;;-146.67;100.00;57155.34;5080520;28;9664;-78
2023/08/29 10:13:50;;;;;;;;;4.00;2.50;;;;;-146.67;100.00;57155.34;5081577;28;9652;-77
2023/08/29 10:16:15;;;;;;;;;3.25;3.00;;;;;-146.67;100.00;57155.34;5082086;28;9703;-77
2023/08/29 10:18:44;;;;;;;;;3.00;2.00;;;;;-146.67;100.00;57155.34;5080307;28;9871;-78
2023/08/29 10:21:12;;;;;;;;;3.00;2.25;;;;;-146.67;100.00;57155.34;5063306;28;8741;-78
2023/08/29 10:23:42;;;;;;;;;2.00;2.00;;;;;-146.67;100.00;57155.34;5063519;28;9502;-78
2023/08/29 10:26:11;;;;;;;;;4.75;2.00;;;;;-146.67;100.00;57155.34;5081939;28;9560;-77
2023/08/29 10:28:39;;;;;;;;;3.00;2.00;;;;;-146.67;100.00;57155.34;5094535;28;10035;-77
2023/08/29 10:31:06;;;;;;;;;3.75;3.00;;;;;-146.67;100.00;57155.34;5063687;28;9669;-77
2023/08/29 10:33:36;;;;;;;;;3.25;2.00;;;;;-146.67;100.00;57155.34;5081259;28;9836;-77
2023/08/29 10:36:06;;;;;;;;;8.00;3.75;;;;;-146.67;100.00;57155.34;5063244;28;9875;-77
2023/08/29 10:38:31;;;;;;;;;4.50;4.00;;;;;-146.67;100.00;57155.34;5080804;28;10087;-77
2023/08/29 10:41:06;;;;;;;;;4.75;4.75;;;;;-146.67;100.00;57155.34;5081587;28;9573;-78
2023/08/29 10:43:36;;;;;;;;;5.00;5.00;;;;;-146.67;100.00;57155.34;5063675;28;8724;-76
2023/08/29 10:46:22;;;;;;;;;4.00;1.75;;;;;-146.67;100.00;57155.34;5062989;28;9831;-77
2023/08/29 10:48:51;;;;;;;;;3.25;3.25;;;;;-146.67;100.00;57155.34;5060941;28;10632;-77
2023/08/29 10:51:22;;;;;;;;;5.75;4.00;;;;;-146.67;100.00;57155.34;5080388;28;10115;-77
2023/08/29 10:53:53;;;;;;;;;3.25;3.25;;;;;-146.67;100.00;57155.34;5081799;28;9679;-80
2023/08/29 10:56:26;;;;;;;;;2.00;1.00;;;;;-146.67;100.00;57155.34;5063157;28;9662;-76
2023/08/29 10:58:51;;;;;;;;;4.25;3.75;;;;;-146.67;100.00;57155.34;5063958;28;10137;-76
2023/08/29 11:01:36;;;;;;;;;2.00;2.00;;;;;-146.67;100.00;57155.34;5063880;28;9850;-80
2023/08/29 11:04:13;;;;;;;;;5.25;5.25;;;;;-146.67;100.00;57155.34;5063362;28;8739;-78
2023/08/29 11:06:56;;;;;;;;;5.25;4.00;;;;;-146.67;100.00;57155.34;5050879;28;10031;-78
2023/08/29 11:09:24;;;;;;;;;6.00;3.75;;;;;-146.67;100.00;57155.34;5064167;28;10114;-80
2023/08/29 11:12:16;;;;;;;;;5.25;3.50;;;;;-146.67;100.00;57155.34;5060297;28;9982;-78
2023/08/29 11:15:01;;;;;;;;;4.50;4.50;;;;;-146.67;100.00;57155.34;5063393;28;9677;-79